< < Back
Terminal Aerodrome Forecast


Current Version              Previous Versions:   1  2  3  4  5  6  7  8  9  

Terminal Aerodrome Forecast

108
FTUS42 KFFC 010149 AAA
TAFATL
TAF AMD
KATL 010149Z 0102/0206 14006KT P6SM VCSH SCT040 BKN200
     FM010400 17005KT P6SM SCT060 BKN250
     FM011400 21006KT P6SM BKN015
     FM011600 23009KT P6SM VCSH BKN025
     FM011800 23010KT 4SM -TSRA BKN030CB
     FM012100 23008KT P6SM VCSH OVC040=



Latest METAR

557
SAUS70 KWBC 010200 RRQ
MTRATL
METAR KATL 010152Z 11008KT 10SM FEW045 SCT080 BKN200 BKN250 21/17 A2998
RMK AO2 RAB03E15 TSE27 SLP143 TS MOVD N OCNL LTGIC DSNT E-SE
CB DSNT E-SE P0000 T02060172


USA.gov is the U.S. government's official web portal to all federal, state and local government web resources and services.